createdAt,value
2022-12-06T00:01:10.788Z,11.77
2022-12-06T00:03:38.700Z,11.07
2022-12-06T00:06:08.518Z,11.77
2022-12-06T00:08:36.031Z,13.33
2022-12-06T00:11:07.884Z,13.77
2022-12-06T00:13:34.971Z,13.70
2022-12-06T00:16:06.183Z,12.83
2022-12-06T00:18:34.046Z,14.93
2022-12-06T00:21:10.805Z,15.67
2022-12-06T00:23:38.683Z,16.40
2022-12-06T00:26:05.800Z,16.63
2022-12-06T00:28:33.012Z,15.60
2022-12-06T00:31:00.696Z,15.83
2022-12-06T00:33:27.985Z,17.37
2022-12-06T00:35:58.332Z,16.97
2022-12-06T00:38:25.637Z,18.07
2022-12-06T00:41:03.555Z,16.97
2022-12-06T00:43:30.558Z,17.73
2022-12-06T00:45:57.057Z,17.20
2022-12-06T00:48:23.683Z,17.33
2022-12-06T00:50:50.752Z,18.70
2022-12-06T00:53:17.314Z,18.87
2022-12-06T00:55:44.831Z,18.37
2022-12-06T00:58:12.134Z,18.87
2022-12-06T01:00:38.844Z,18.73
2022-12-06T01:03:06.032Z,20.67
2022-12-06T01:05:32.831Z,19.77
2022-12-06T01:07:59.497Z,18.27
2022-12-06T01:10:26.322Z,18.73
2022-12-06T01:12:53.004Z,19.10
2022-12-06T01:15:19.746Z,19.57
2022-12-06T01:17:46.450Z,19.37
2022-12-06T01:20:13.827Z,19.40
2022-12-06T01:22:40.643Z,18.93
2022-12-06T01:25:07.443Z,19.27
2022-12-06T01:27:34.052Z,20.63
2022-12-06T01:30:00.954Z,18.23
2022-12-06T01:32:30.082Z,18.50
2022-12-06T01:34:57.018Z,19.07
2022-12-06T01:37:23.595Z,19.33
2022-12-06T01:39:50.563Z,18.30
2022-12-06T01:42:17.591Z,18.83
2022-12-06T01:44:53.135Z,18.37
2022-12-06T01:47:30.121Z,16.87
2022-12-06T01:50:17.851Z,17.43
2022-12-06T01:52:55.245Z,16.13
2022-12-06T01:55:23.436Z,15.20
2022-12-06T01:57:52.137Z,16.00
2022-12-06T02:00:19.190Z,15.83
2022-12-06T02:02:45.800Z,15.27
2022-12-06T02:05:13.900Z,14.37
2022-12-06T02:07:40.829Z,14.83
2022-12-06T02:10:08.082Z,14.53
2022-12-06T02:12:34.576Z,15.07
2022-12-06T02:15:01.088Z,14.23
2022-12-06T02:17:47.564Z,13.13
2022-12-06T02:20:20.346Z,14.23
2022-12-06T02:23:15.512Z,11.80
2022-12-06T02:26:12.738Z,13.33
2022-12-06T02:29:02.265Z,12.10
2022-12-06T02:31:32.243Z,12.33
2022-12-06T02:34:11.231Z,11.70
2022-12-06T02:36:48.827Z,12.40
2022-12-06T02:39:23.671Z,11.13
2022-12-06T02:41:56.958Z,11.23
2022-12-06T02:44:31.524Z,11.90
2022-12-06T02:46:59.060Z,11.67
2022-12-06T02:49:27.211Z,11.77
2022-12-06T02:51:54.916Z,11.67
2022-12-06T02:54:23.353Z,12.03
2022-12-06T02:56:49.970Z,11.37
2022-12-06T02:59:16.447Z,10.60
2022-12-06T03:01:50.034Z,10.63
2022-12-06T03:04:33.369Z,10.63
2022-12-06T03:07:00.234Z,9.90
2022-12-06T03:09:40.854Z,10.57
2022-12-06T03:12:26.256Z,11.07
2022-12-06T03:14:59.547Z,11.30
2022-12-06T03:17:41.454Z,11.70
2022-12-06T03:20:23.065Z,11.30
2022-12-06T03:22:53.418Z,11.27
2022-12-06T03:25:20.348Z,11.80
2022-12-06T03:27:47.882Z,12.87
2022-12-06T03:30:15.151Z,13.37
2022-12-06T03:32:44.733Z,12.37
2022-12-06T03:35:13.577Z,11.73
2022-12-06T03:37:41.471Z,11.87
2022-12-06T03:40:20.400Z,12.37
2022-12-06T03:42:47.430Z,12.63
2022-12-06T03:45:14.454Z,13.07
2022-12-06T03:47:51.675Z,12.60
2022-12-06T03:50:27.613Z,13.03
2022-12-06T03:52:54.296Z,13.37
2022-12-06T03:55:20.825Z,13.10
2022-12-06T03:57:47.358Z,13.43
2022-12-06T04:00:14.686Z,13.33
2022-12-06T04:02:41.259Z,13.63
2022-12-06T04:05:08.192Z,12.90
2022-12-06T04:07:34.951Z,13.50
2022-12-06T04:10:04.330Z,12.57
2022-12-06T04:12:50.973Z,13.70
2022-12-06T04:15:18.178Z,12.27
2022-12-06T04:18:03.484Z,12.97
2022-12-06T04:20:51.010Z,12.40
2022-12-06T04:23:20.955Z,13.57
2022-12-06T04:25:47.521Z,13.47
2022-12-06T04:28:33.090Z,13.73
2022-12-06T04:31:22.004Z,13.23
2022-12-06T04:34:07.415Z,12.97
2022-12-06T04:36:52.811Z,12.90
2022-12-06T04:39:21.073Z,12.73
2022-12-06T04:42:07.020Z,12.67
2022-12-06T04:44:33.527Z,13.50
2022-12-06T04:47:00.744Z,13.03
2022-12-06T04:49:28.783Z,12.43
2022-12-06T04:51:55.769Z,14.27
2022-12-06T04:54:22.961Z,13.67
2022-12-06T04:56:49.560Z,11.93
2022-12-06T04:59:16.480Z,12.77
2022-12-06T05:01:43.020Z,12.40
2022-12-06T05:04:09.719Z,13.43
2022-12-06T05:06:36.480Z,13.17
2022-12-06T05:09:03.887Z,12.97
2022-12-06T05:11:30.517Z,13.67
2022-12-06T05:13:57.210Z,14.30
2022-12-06T05:16:23.835Z,13.30
2022-12-06T05:18:50.554Z,13.27
2022-12-06T05:21:19.858Z,13.00
2022-12-06T05:23:46.820Z,13.53
2022-12-06T05:26:16.645Z,13.70
2022-12-06T05:28:43.819Z,13.67
2022-12-06T05:31:11.459Z,13.27
2022-12-06T05:33:38.568Z,14.10
2022-12-06T05:36:09.968Z,14.47
2022-12-06T05:38:36.717Z,14.63
2022-12-06T05:41:04.402Z,14.03
2022-12-06T05:43:31.120Z,13.77
2022-12-06T05:45:58.013Z,14.23
2022-12-06T05:48:24.774Z,14.00
2022-12-06T05:50:51.479Z,13.03
2022-12-06T05:53:18.415Z,13.60
2022-12-06T05:55:45.204Z,13.30
2022-12-06T05:58:12.268Z,13.53
2022-12-06T06:00:39.036Z,15.03
2022-12-06T06:03:06.015Z,14.13
2022-12-06T06:05:32.881Z,14.47
2022-12-06T06:07:59.562Z,14.73
2022-12-06T06:10:26.165Z,13.53
2022-12-06T06:12:52.825Z,14.47
2022-12-06T06:15:19.661Z,13.90
2022-12-06T06:17:46.355Z,13.27
2022-12-06T06:20:13.931Z,15.27
2022-12-06T06:22:41.950Z,14.40
2022-12-06T06:25:09.013Z,14.93
2022-12-06T06:27:39.983Z,14.40
2022-12-06T06:30:08.868Z,13.87
2022-12-06T06:32:35.769Z,14.40
2022-12-06T06:35:02.951Z,15.20
2022-12-06T06:37:29.582Z,15.23
2022-12-06T06:39:56.626Z,14.80
2022-12-06T06:42:23.408Z,13.20
2022-12-06T06:44:50.128Z,13.80
2022-12-06T06:47:16.684Z,14.97
2022-12-06T06:49:43.536Z,15.33
2022-12-06T06:52:10.079Z,14.70
2022-12-06T06:54:36.657Z,15.80
2022-12-06T06:57:03.160Z,15.57
2022-12-06T06:59:29.805Z,15.50
2022-12-06T07:01:56.560Z,19.08
2022-12-06T07:04:23.161Z,16.93
2022-12-06T07:06:49.726Z,15.03
2022-12-06T07:09:16.248Z,16.47
2022-12-06T07:11:43.139Z,18.93
2022-12-06T07:14:09.597Z,17.60
2022-12-06T07:16:36.305Z,17.47
2022-12-06T07:19:08.710Z,16.77
2022-12-06T07:21:35.983Z,15.87
2022-12-06T07:24:02.577Z,16.57
2022-12-06T07:26:29.221Z,16.50
2022-12-06T07:28:57.848Z,17.37
2022-12-06T07:31:26.752Z,16.07
2022-12-06T07:33:55.414Z,15.50
2022-12-06T07:36:23.338Z,16.50
2022-12-06T07:38:52.626Z,15.80
2022-12-06T07:41:39.364Z,15.73
2022-12-06T07:44:24.873Z,16.53
2022-12-06T07:46:51.363Z,16.17
2022-12-06T07:49:18.589Z,16.23
2022-12-06T07:51:45.756Z,16.37
2022-12-06T07:54:13.813Z,16.60
2022-12-06T07:56:41.189Z,16.53
2022-12-06T07:59:07.994Z,16.57
2022-12-06T08:01:35.043Z,17.70
2022-12-06T08:04:05.673Z,16.60
2022-12-06T08:06:36.038Z,16.90
2022-12-06T08:09:02.627Z,14.43
2022-12-06T08:11:29.322Z,16.03
2022-12-06T08:13:56.066Z,16.00
2022-12-06T08:16:22.794Z,13.93
2022-12-06T08:18:49.791Z,13.50
2022-12-06T08:21:17.617Z,13.57
2022-12-06T08:23:44.302Z,13.70
2022-12-06T08:26:13.891Z,13.40
2022-12-06T08:28:40.842Z,13.97
2022-12-06T08:31:11.982Z,13.27
2022-12-06T08:33:38.878Z,13.90
2022-12-06T08:36:12.811Z,12.70
2022-12-06T08:38:39.616Z,36.57
2022-12-06T08:41:27.358Z,52.07
2022-12-06T08:43:55.270Z,15.50
2022-12-06T08:46:22.229Z,13.57
2022-12-06T08:48:48.745Z,13.70
2022-12-06T08:51:15.568Z,13.47
2022-12-06T08:53:42.107Z,13.00
2022-12-06T08:56:09.363Z,14.73
2022-12-06T08:58:35.896Z,13.50
2022-12-06T09:01:12.941Z,14.60
2022-12-06T09:03:39.786Z,37.63
2022-12-06T09:06:07.105Z,22.63
2022-12-06T09:08:33.634Z,14.73
2022-12-06T09:11:00.261Z,13.87
2022-12-06T09:13:26.906Z,13.20
2022-12-06T09:15:53.394Z,13.33
2022-12-06T09:18:20.016Z,13.23
2022-12-06T09:20:46.525Z,13.07
2022-12-06T09:23:13.102Z,12.13
2022-12-06T09:25:42.321Z,12.33
2022-12-06T09:28:09.077Z,11.40
2022-12-06T09:30:35.636Z,11.27
2022-12-06T09:33:02.332Z,12.57
2022-12-06T09:35:32.103Z,11.07
2022-12-06T09:37:58.934Z,10.70
2022-12-06T09:40:39.821Z,12.63
2022-12-06T09:43:12.794Z,11.20
2022-12-06T09:46:23.596Z,10.20
2022-12-06T09:48:53.136Z,11.40
2022-12-06T09:51:36.818Z,10.90
2022-12-06T09:54:21.345Z,10.27
2022-12-06T09:56:52.072Z,11.03
2022-12-06T09:59:47.796Z,10.60
2022-12-06T10:02:49.688Z,11.67
2022-12-06T10:05:30.354Z,10.03
2022-12-06T10:08:06.046Z,9.73
2022-12-06T10:10:53.843Z,10.20
2022-12-06T10:13:36.515Z,9.17
2022-12-06T10:16:12.416Z,10.17
2022-12-06T10:19:08.766Z,9.57
2022-12-06T10:22:24.657Z,9.03
2022-12-06T10:25:03.295Z,10.73
2022-12-06T10:27:50.160Z,9.60
2022-12-06T10:30:17.245Z,8.77
2022-12-06T10:32:54.432Z,7.57
2022-12-06T10:35:42.375Z,7.53
2022-12-06T10:38:33.726Z,6.87
2022-12-06T10:41:09.130Z,7.17
2022-12-06T10:44:08.190Z,7.70
2022-12-06T10:47:06.560Z,6.97
2022-12-06T10:50:00.288Z,6.97
2022-12-06T10:52:32.508Z,7.10
2022-12-06T10:55:03.354Z,7.33
2022-12-06T10:57:49.857Z,7.00
2022-12-06T11:00:20.584Z,6.90
2022-12-06T11:02:50.387Z,6.63
2022-12-06T11:05:40.488Z,9.60
2022-12-06T11:08:12.231Z,10.13
2022-12-06T11:10:39.298Z,10.33
2022-12-06T11:13:38.091Z,7.67
2022-12-06T11:16:50.323Z,6.77
2022-12-06T11:19:20.897Z,7.07
2022-12-06T11:21:55.033Z,6.60
2022-12-06T11:24:28.413Z,6.50
2022-12-06T11:27:19.425Z,6.07
2022-12-06T11:29:48.463Z,6.87
2022-12-06T11:32:15.796Z,6.10
2022-12-06T11:34:52.325Z,6.70
2022-12-06T11:37:24.320Z,14.97
2022-12-06T11:40:06.231Z,8.07
2022-12-06T11:42:33.212Z,9.10
2022-12-06T11:45:21.722Z,7.17
2022-12-06T11:47:48.555Z,8.83
2022-12-06T11:50:18.721Z,7.20
2022-12-06T11:52:53.767Z,7.50
2022-12-06T11:55:24.464Z,7.60
2022-12-06T11:58:16.657Z,7.70
2022-12-06T12:01:06.391Z,7.17
2022-12-06T12:03:35.373Z,8.03
2022-12-06T12:06:28.090Z,7.13
2022-12-06T12:09:00.696Z,7.50
2022-12-06T12:11:29.885Z,8.40
2022-12-06T12:14:01.000Z,7.13
2022-12-06T12:16:35.824Z,7.13
2022-12-06T12:19:03.718Z,8.07
2022-12-06T12:21:39.283Z,7.73
2022-12-06T12:24:27.159Z,8.63
2022-12-06T12:26:53.718Z,8.77
2022-12-06T12:29:22.071Z,8.37
2022-12-06T12:31:53.514Z,8.93
2022-12-06T12:34:28.799Z,8.77
2022-12-06T12:36:58.479Z,7.63
2022-12-06T12:39:45.986Z,7.30
2022-12-06T12:42:31.567Z,7.83
2022-12-06T12:45:00.246Z,7.73
2022-12-06T12:47:27.167Z,6.93
2022-12-06T12:50:14.698Z,7.20
2022-12-06T12:52:42.656Z,6.90
2022-12-06T12:55:21.440Z,6.43
2022-12-06T12:57:54.223Z,6.50
2022-12-06T13:00:23.675Z,5.70
2022-12-06T13:02:55.298Z,6.03
2022-12-06T13:05:33.632Z,7.40
2022-12-06T13:08:17.871Z,6.57
2022-12-06T13:10:51.680Z,6.73
2022-12-06T13:13:31.325Z,7.60
2022-12-06T13:15:58.905Z,7.80
2022-12-06T13:18:30.722Z,9.53
2022-12-06T13:20:59.614Z,7.30
2022-12-06T13:23:34.149Z,8.20
2022-12-06T13:26:19.695Z,7.97
2022-12-06T13:28:50.310Z,5.90
2022-12-06T13:31:19.190Z,6.07
2022-12-06T13:33:53.278Z,5.80
2022-12-06T13:36:20.805Z,5.27
2022-12-06T13:38:47.759Z,5.97
2022-12-06T13:41:15.080Z,4.87
2022-12-06T13:43:50.831Z,4.23
2022-12-06T13:46:28.721Z,4.70
2022-12-06T13:48:58.069Z,3.93
2022-12-06T13:51:30.708Z,4.43
2022-12-06T13:54:02.973Z,4.17
2022-12-06T13:56:35.541Z,4.00
2022-12-06T13:59:12.350Z,4.50
2022-12-06T14:01:49.664Z,4.57
2022-12-06T14:06:57.670Z,4.77
2022-12-06T14:09:25.907Z,3.77
2022-12-06T14:11:53.342Z,3.20
2022-12-06T14:14:24.714Z,3.83
2022-12-06T14:17:01.043Z,3.53
2022-12-06T14:19:46.873Z,3.77
2022-12-06T14:22:29.218Z,3.77
2022-12-06T14:25:18.753Z,3.60
2022-12-06T14:27:47.938Z,3.50
2022-12-06T14:30:26.544Z,3.40
2022-12-06T14:32:55.723Z,3.57
2022-12-06T14:35:35.431Z,4.20
2022-12-06T14:38:23.537Z,3.77
2022-12-06T14:41:09.637Z,4.00
2022-12-06T14:43:36.517Z,3.93
2022-12-06T14:46:05.459Z,3.67
2022-12-06T14:48:53.869Z,4.43
2022-12-06T14:51:26.408Z,4.60
2022-12-06T14:53:53.384Z,4.90
2022-12-06T14:56:29.042Z,4.53
2022-12-06T14:58:58.485Z,4.63
2022-12-06T15:01:29.558Z,4.30
2022-12-06T15:04:01.258Z,4.40
2022-12-06T15:06:30.060Z,4.03
2022-12-06T15:08:56.658Z,4.27
2022-12-06T15:11:47.967Z,4.23
2022-12-06T15:14:17.196Z,4.87
2022-12-06T15:16:46.496Z,4.40
2022-12-06T15:19:15.051Z,4.50
2022-12-06T15:21:41.865Z,5.33
2022-12-06T15:24:20.318Z,4.83
2022-12-06T15:26:47.519Z,4.57
2022-12-06T15:29:14.514Z,4.93
2022-12-06T15:31:49.848Z,4.43
2022-12-06T15:34:22.368Z,4.60
2022-12-06T15:36:49.373Z,5.17
2022-12-06T15:39:15.831Z,4.40
2022-12-06T15:41:42.857Z,5.23
2022-12-06T15:44:14.859Z,4.80
2022-12-06T15:46:42.138Z,4.60
2022-12-06T15:49:09.962Z,4.80
2022-12-06T15:51:36.596Z,4.50
2022-12-06T15:54:05.241Z,4.77
2022-12-06T15:56:31.868Z,4.57
2022-12-06T15:58:58.574Z,4.97
2022-12-06T16:01:34.712Z,4.80
2022-12-06T16:04:03.432Z,4.97
2022-12-06T16:06:30.082Z,4.57
2022-12-06T16:08:57.001Z,4.83
2022-12-06T16:11:26.172Z,4.80
2022-12-06T16:13:53.246Z,5.03
2022-12-06T16:16:22.748Z,4.80
2022-12-06T16:18:50.941Z,5.50
2022-12-06T16:21:30.961Z,4.60
2022-12-06T16:24:13.097Z,5.75
2022-12-06T16:26:43.482Z,5.40
2022-12-06T16:29:23.307Z,5.23
2022-12-06T16:31:51.125Z,4.53
2022-12-06T16:34:17.890Z,5.17
2022-12-06T16:37:13.577Z,5.50
2022-12-06T16:39:40.074Z,5.53
2022-12-06T16:42:06.658Z,4.70
2022-12-06T16:44:33.394Z,5.23
2022-12-06T16:47:08.176Z,5.17
2022-12-06T16:49:48.728Z,6.20
2022-12-06T16:52:17.206Z,5.40
2022-12-06T16:54:44.028Z,5.30
2022-12-06T16:57:14.400Z,6.23
2022-12-06T16:59:42.447Z,5.60
2022-12-06T17:02:27.961Z,5.67
2022-12-06T17:04:56.151Z,6.00
2022-12-06T17:07:25.093Z,5.00
2022-12-06T17:09:51.910Z,5.73
2022-12-06T17:12:18.850Z,6.10
2022-12-06T17:14:45.691Z,5.50
2022-12-06T17:17:22.316Z,6.87
2022-12-06T17:19:49.277Z,5.60
2022-12-06T17:22:19.124Z,5.57
2022-12-06T17:24:45.877Z,6.30
2022-12-06T17:27:14.792Z,5.73
2022-12-06T17:29:42.474Z,5.73
2022-12-06T17:32:09.401Z,5.90
2022-12-06T17:34:36.336Z,6.73
2022-12-06T17:37:03.063Z,6.37
2022-12-06T17:39:29.688Z,7.07
2022-12-06T17:42:14.986Z,7.00
2022-12-06T17:44:41.675Z,7.03
2022-12-06T17:47:08.279Z,7.83
2022-12-06T17:49:36.439Z,8.17
2022-12-06T17:52:03.166Z,7.67
2022-12-06T17:54:29.812Z,9.23
2022-12-06T17:56:56.533Z,8.37
2022-12-06T17:59:25.516Z,8.20
2022-12-06T18:04:40.197Z,8.37
2022-12-06T18:07:06.774Z,8.30
2022-12-06T18:09:33.334Z,8.20
2022-12-06T18:12:01.380Z,8.00
2022-12-06T18:14:28.772Z,8.50
2022-12-06T18:16:56.012Z,7.73
2022-12-06T18:19:22.798Z,7.63
2022-12-06T18:21:52.332Z,7.57
2022-12-06T18:24:22.189Z,7.27
2022-12-06T18:58:18.179Z,6.73
2022-12-06T19:00:45.543Z,6.63
2022-12-06T19:03:14.570Z,6.53
2022-12-06T19:06:01.748Z,7.17
2022-12-06T19:08:27.938Z,6.53
2022-12-06T19:10:54.661Z,6.73
2022-12-06T19:13:21.383Z,6.50
2022-12-06T19:15:47.978Z,7.00
2022-12-06T19:18:14.612Z,6.90
2022-12-06T19:20:41.881Z,6.77
2022-12-06T19:23:08.470Z,6.37
2022-12-06T19:25:35.047Z,7.10
2022-12-06T19:28:02.669Z,6.80
2022-12-06T19:30:29.775Z,7.43
2022-12-06T19:32:56.777Z,7.13
2022-12-06T19:35:23.593Z,7.60
2022-12-06T19:37:50.138Z,6.87
2022-12-06T19:40:16.694Z,16.67
2022-12-06T19:43:01.991Z,7.80
2022-12-06T19:45:28.540Z,6.83
2022-12-06T19:47:55.735Z,7.67
2022-12-06T19:50:22.237Z,7.70
2022-12-06T19:52:49.103Z,6.97
2022-12-06T19:55:15.750Z,6.67
2022-12-06T19:57:45.416Z,7.17
2022-12-06T20:00:12.735Z,6.53
2022-12-06T20:02:39.489Z,7.57
2022-12-06T20:05:06.896Z,7.40
2022-12-06T20:07:33.547Z,8.00
2022-12-06T20:10:00.286Z,8.00
2022-12-06T20:12:27.428Z,8.07
2022-12-06T20:14:54.729Z,7.03
2022-12-06T20:17:23.795Z,7.30
2022-12-06T20:19:50.621Z,7.43
2022-12-06T20:22:18.466Z,7.57
2022-12-06T20:24:45.265Z,7.13
2022-12-06T20:27:12.133Z,8.30
2022-12-06T20:29:38.854Z,7.73
2022-12-06T20:32:06.092Z,8.17
2022-12-06T20:34:34.974Z,8.30
2022-12-06T20:37:03.973Z,8.40
2022-12-06T20:39:33.155Z,8.47
2022-12-06T20:42:01.053Z,8.80
2022-12-06T20:44:27.771Z,8.03
2022-12-06T20:46:54.658Z,8.13
2022-12-06T20:49:21.368Z,8.97
2022-12-06T20:51:52.930Z,8.80
2022-12-06T20:54:20.371Z,9.33
2022-12-06T20:56:47.273Z,9.50
2022-12-06T20:59:14.176Z,10.47
2022-12-06T21:01:42.329Z,10.53
2022-12-06T21:04:12.797Z,11.40
2022-12-06T21:06:39.455Z,10.53
2022-12-06T21:09:06.197Z,11.27
2022-12-06T21:11:32.767Z,10.50
2022-12-06T21:13:59.569Z,10.43
2022-12-06T21:16:29.138Z,10.47
2022-12-06T21:19:02.250Z,10.83
2022-12-06T21:21:34.581Z,10.63
2022-12-06T21:24:03.227Z,11.30
2022-12-06T21:26:32.275Z,11.97
2022-12-06T21:28:59.052Z,12.83
2022-12-06T21:31:27.789Z,13.10
2022-12-06T21:33:55.331Z,12.83
2022-12-06T21:36:22.312Z,13.60
2022-12-06T21:38:48.985Z,13.33
2022-12-06T21:41:16.139Z,14.37
2022-12-06T21:43:43.184Z,15.03
2022-12-06T21:46:15.152Z,14.30
2022-12-06T21:48:42.600Z,15.97
2022-12-06T21:51:11.934Z,15.90
2022-12-06T21:53:38.774Z,15.60
2022-12-06T21:56:26.877Z,15.97
2022-12-06T21:58:54.261Z,17.43
2022-12-06T22:01:24.318Z,18.20
2022-12-06T22:03:52.982Z,18.77
2022-12-06T22:06:19.896Z,20.63
2022-12-06T22:08:47.868Z,19.60
2022-12-06T22:11:17.204Z,19.93
2022-12-06T22:13:44.467Z,20.87
2022-12-06T22:16:12.179Z,20.67
2022-12-06T22:18:44.847Z,19.43
2022-12-06T22:21:15.935Z,20.70
2022-12-06T22:23:42.669Z,19.27
2022-12-06T22:26:10.650Z,19.80
2022-12-06T22:28:37.260Z,22.23
2022-12-06T22:31:13.999Z,20.83
2022-12-06T22:33:40.990Z,21.87
2022-12-06T22:36:08.440Z,20.80
2022-12-06T22:38:35.460Z,21.77
2022-12-06T22:41:02.491Z,22.77
2022-12-06T22:43:29.635Z,22.10
2022-12-06T22:45:56.754Z,23.77
2022-12-06T22:48:23.431Z,25.10
2022-12-06T22:50:49.874Z,24.70
2022-12-06T22:53:16.468Z,25.80
2022-12-06T22:55:42.952Z,25.97
2022-12-06T22:58:09.473Z,25.63
2022-12-06T23:00:36.544Z,24.23
2022-12-06T23:03:03.014Z,27.37
2022-12-06T23:05:29.737Z,24.90
2022-12-06T23:07:57.490Z,26.97
2022-12-06T23:10:24.672Z,26.30
2022-12-06T23:12:51.417Z,27.77
2022-12-06T23:15:18.021Z,26.50
2022-12-06T23:17:44.521Z,25.50
2022-12-06T23:20:11.425Z,27.00
2022-12-06T23:22:38.057Z,25.57
2022-12-06T23:25:05.211Z,26.00
2022-12-06T23:27:31.960Z,24.53
2022-12-06T23:29:58.809Z,25.50
2022-12-06T23:32:25.571Z,26.07
2022-12-06T23:34:52.044Z,26.47
2022-12-06T23:37:18.581Z,25.03
2022-12-06T23:39:45.346Z,26.60
2022-12-06T23:42:11.989Z,25.63
2022-12-06T23:44:40.003Z,25.83
2022-12-06T23:47:06.728Z,25.27
2022-12-06T23:49:33.376Z,26.43
2022-12-06T23:51:59.915Z,26.67
2022-12-06T23:54:26.805Z,26.40
2022-12-06T23:56:53.436Z,24.70
2022-12-06T23:59:19.947Z,26.70
